sensor_id;sensor_type;location;lat;lon;timestamp;P1;durP1;ratioP1;P2;durP2;ratioP2
77304;SDS011;66364;52.622;7.746;2023-06-04T00:01:11;3.23;;;1.40;;
77304;SDS011;66364;52.622;7.746;2023-06-04T00:03:13;1.98;;;1.65;;
77304;SDS011;66364;52.622;7.746;2023-06-04T00:05:14;6.20;;;2.47;;
77304;SDS011;66364;52.622;7.746;2023-06-04T00:07:15;2.73;;;2.43;;
77304;SDS011;66364;52.622;7.746;2023-06-04T00:09:16;2.33;;;2.00;;
77304;SDS011;66364;52.622;7.746;2023-06-04T00:11:17;2.90;;;2.20;;
77304;SDS011;66364;52.622;7.746;2023-06-04T00:13:19;2.85;;;2.10;;
77304;SDS011;66364;52.622;7.746;2023-06-04T00:15:20;4.10;;;2.20;;
77304;SDS011;66364;52.622;7.746;2023-06-04T00:17:22;3.10;;;2.30;;
77304;SDS011;66364;52.622;7.746;2023-06-04T00:19:23;2.53;;;2.13;;
77304;SDS011;66364;52.622;7.746;2023-06-04T00:21:24;2.10;;;1.90;;
77304;SDS011;66364;52.622;7.746;2023-06-04T00:23:24;2.60;;;1.90;;
77304;SDS011;66364;52.622;7.746;2023-06-04T00:25:25;2.53;;;1.97;;
77304;SDS011;66364;52.622;7.746;2023-06-04T00:27:27;4.00;;;1.82;;
77304;SDS011;66364;52.622;7.746;2023-06-04T00:29:29;3.70;;;2.20;;
77304;SDS011;66364;52.622;7.746;2023-06-04T00:31:30;3.95;;;2.72;;
77304;SDS011;66364;52.622;7.746;2023-06-04T00:33:32;2.30;;;2.00;;
77304;SDS011;66364;52.622;7.746;2023-06-04T00:35:33;2.22;;;2.02;;
77304;SDS011;66364;52.622;7.746;2023-06-04T00:37:34;1.90;;;1.80;;
77304;SDS011;66364;52.622;7.746;2023-06-04T00:39:35;3.70;;;2.00;;
77304;SDS011;66364;52.622;7.746;2023-06-04T00:41:36;2.90;;;1.73;;
77304;SDS011;66364;52.622;7.746;2023-06-04T00:43:37;2.77;;;2.57;;
77304;SDS011;66364;52.622;7.746;2023-06-04T00:45:38;2.37;;;2.17;;
77304;SDS011;66364;52.622;7.746;2023-06-04T00:47:39;2.63;;;1.67;;
77304;SDS011;66364;52.622;7.746;2023-06-04T00:49:46;4.35;;;2.40;;
77304;SDS011;66364;52.622;7.746;2023-06-04T00:51:48;2.27;;;2.08;;
77304;SDS011;66364;52.622;7.746;2023-06-04T00:53:49;5.25;;;2.10;;
77304;SDS011;66364;52.622;7.746;2023-06-04T00:55:51;3.87;;;2.25;;
77304;SDS011;66364;52.622;7.746;2023-06-04T00:57:52;4.03;;;2.20;;
77304;SDS011;66364;52.622;7.746;2023-06-04T00:59:53;2.20;;;2.00;;
77304;SDS011;66364;52.622;7.746;2023-06-04T01:01:55;2.42;;;1.87;;
77304;SDS011;66364;52.622;7.746;2023-06-04T01:04:00;3.25;;;2.70;;
77304;SDS011;66364;52.622;7.746;2023-06-04T01:06:04;3.67;;;1.92;;
77304;SDS011;66364;52.622;7.746;2023-06-04T01:08:10;4.20;;;2.25;;
77304;SDS011;66364;52.622;7.746;2023-06-04T01:10:12;5.17;;;3.25;;
77304;SDS011;66364;52.622;7.746;2023-06-04T01:12:14;5.72;;;2.58;;
77304;SDS011;66364;52.622;7.746;2023-06-04T01:14:16;3.85;;;2.15;;
77304;SDS011;66364;52.622;7.746;2023-06-04T01:16:17;4.30;;;2.87;;
77304;SDS011;66364;52.622;7.746;2023-06-04T01:18:21;1.95;;;1.80;;
77304;SDS011;66364;52.622;7.746;2023-06-04T01:24:55;2.65;;;2.17;;
77304;SDS011;66364;52.622;7.746;2023-06-04T01:26:58;2.25;;;2.05;;
77304;SDS011;66364;52.622;7.746;2023-06-04T01:29:00;16.65;;;3.12;;
77304;SDS011;66364;52.622;7.746;2023-06-04T01:31:02;3.65;;;2.40;;
77304;SDS011;66364;52.622;7.746;2023-06-04T01:33:04;3.72;;;2.30;;
77304;SDS011;66364;52.622;7.746;2023-06-04T01:35:08;2.27;;;2.07;;
77304;SDS011;66364;52.622;7.746;2023-06-04T01:37:12;4.08;;;2.60;;
77304;SDS011;66364;52.622;7.746;2023-06-04T01:39:13;3.35;;;2.30;;
77304;SDS011;66364;52.622;7.746;2023-06-04T01:41:14;3.45;;;2.62;;
77304;SDS011;66364;52.622;7.746;2023-06-04T01:43:15;3.17;;;2.30;;
77304;SDS011;66364;52.622;7.746;2023-06-04T01:45:16;4.13;;;2.20;;
77304;SDS011;66364;52.622;7.746;2023-06-04T01:47:17;5.10;;;2.27;;
77304;SDS011;66364;52.622;7.746;2023-06-04T01:49:18;4.47;;;2.23;;
77304;SDS011;66364;52.622;7.746;2023-06-04T01:51:19;3.33;;;2.03;;
77304;SDS011;66364;52.622;7.746;2023-06-04T01:53:20;2.72;;;2.15;;
77304;SDS011;66364;52.622;7.746;2023-06-04T01:55:24;2.65;;;2.33;;
77304;SDS011;66364;52.622;7.746;2023-06-04T01:57:24;2.85;;;2.62;;
77304;SDS011;66364;52.622;7.746;2023-06-04T01:59:26;5.65;;;3.17;;
77304;SDS011;66364;52.622;7.746;2023-06-04T02:01:26;5.20;;;3.03;;
77304;SDS011;66364;52.622;7.746;2023-06-04T02:03:28;2.58;;;2.37;;
77304;SDS011;66364;52.622;7.746;2023-06-04T02:05:30;5.47;;;3.15;;
77304;SDS011;66364;52.622;7.746;2023-06-04T02:07:31;3.50;;;2.43;;
77304;SDS011;66364;52.622;7.746;2023-06-04T02:09:32;4.40;;;2.90;;
77304;SDS011;66364;52.622;7.746;2023-06-04T02:11:33;3.47;;;3.03;;
77304;SDS011;66364;52.622;7.746;2023-06-04T02:13:34;9.47;;;3.70;;
77304;SDS011;66364;52.622;7.746;2023-06-04T02:15:35;2.87;;;2.67;;
77304;SDS011;66364;52.622;7.746;2023-06-04T02:17:38;9.28;;;3.25;;
77304;SDS011;66364;52.622;7.746;2023-06-04T02:19:40;7.10;;;3.33;;
77304;SDS011;66364;52.622;7.746;2023-06-04T02:21:42;2.80;;;2.55;;
77304;SDS011;66364;52.622;7.746;2023-06-04T02:23:43;3.53;;;2.43;;
77304;SDS011;66364;52.622;7.746;2023-06-04T02:25:44;4.27;;;2.57;;
77304;SDS011;66364;52.622;7.746;2023-06-04T02:27:46;3.70;;;3.27;;
77304;SDS011;66364;52.622;7.746;2023-06-04T02:29:47;3.80;;;3.35;;
77304;SDS011;66364;52.622;7.746;2023-06-04T02:31:48;4.83;;;3.25;;
77304;SDS011;66364;52.622;7.746;2023-06-04T02:33:50;4.12;;;3.15;;
77304;SDS011;66364;52.622;7.746;2023-06-04T02:35:51;3.93;;;3.13;;
77304;SDS011;66364;52.622;7.746;2023-06-04T02:37:52;2.77;;;2.30;;
77304;SDS011;66364;52.622;7.746;2023-06-04T02:39:52;3.80;;;2.50;;
77304;SDS011;66364;52.622;7.746;2023-06-04T02:41:53;5.60;;;3.93;;
77304;SDS011;66364;52.622;7.746;2023-06-04T02:43:54;3.35;;;3.15;;
77304;SDS011;66364;52.622;7.746;2023-06-04T02:45:55;3.40;;;3.10;;
77304;SDS011;66364;52.622;7.746;2023-06-04T02:47:56;4.17;;;3.65;;
77304;SDS011;66364;52.622;7.746;2023-06-04T02:49:58;4.08;;;3.65;;
77304;SDS011;66364;52.622;7.746;2023-06-04T02:51:59;7.10;;;3.17;;
77304;SDS011;66364;52.622;7.746;2023-06-04T02:54:00;4.03;;;3.33;;
77304;SDS011;66364;52.622;7.746;2023-06-04T02:56:01;5.65;;;3.05;;
77304;SDS011;66364;52.622;7.746;2023-06-04T02:58:02;3.87;;;3.08;;
77304;SDS011;66364;52.622;7.746;2023-06-04T03:00:04;7.80;;;3.63;;
77304;SDS011;66364;52.622;7.746;2023-06-04T03:02:05;6.03;;;3.65;;
77304;SDS011;66364;52.622;7.746;2023-06-04T03:04:07;6.80;;;3.42;;
77304;SDS011;66364;52.622;7.746;2023-06-04T03:06:08;3.75;;;3.35;;
77304;SDS011;66364;52.622;7.746;2023-06-04T03:08:09;4.90;;;3.62;;
77304;SDS011;66364;52.622;7.746;2023-06-04T03:10:11;5.20;;;3.33;;
77304;SDS011;66364;52.622;7.746;2023-06-04T03:12:13;3.10;;;2.80;;
77304;SDS011;66364;52.622;7.746;2023-06-04T03:14:14;4.17;;;3.53;;
77304;SDS011;66364;52.622;7.746;2023-06-04T03:16:15;3.65;;;3.05;;
77304;SDS011;66364;52.622;7.746;2023-06-04T03:18:17;7.33;;;3.40;;
77304;SDS011;66364;52.622;7.746;2023-06-04T03:20:18;10.90;;;4.10;;
77304;SDS011;66364;52.622;7.746;2023-06-04T03:22:20;6.95;;;2.70;;
77304;SDS011;66364;52.622;7.746;2023-06-04T03:24:21;4.97;;;3.27;;
77304;SDS011;66364;52.622;7.746;2023-06-04T03:26:29;5.70;;;3.62;;
77304;SDS011;66364;52.622;7.746;2023-06-04T03:28:31;3.12;;;2.77;;
77304;SDS011;66364;52.622;7.746;2023-06-04T03:30:34;3.95;;;3.40;;
77304;SDS011;66364;52.622;7.746;2023-06-04T03:32:35;4.50;;;3.22;;
77304;SDS011;66364;52.622;7.746;2023-06-04T03:34:36;5.27;;;3.20;;
77304;SDS011;66364;52.622;7.746;2023-06-04T03:36:37;5.72;;;3.33;;
77304;SDS011;66364;52.622;7.746;2023-06-04T03:38:38;4.55;;;3.35;;
77304;SDS011;66364;52.622;7.746;2023-06-04T03:40:40;4.10;;;3.30;;
77304;SDS011;66364;52.622;7.746;2023-06-04T03:42:42;5.03;;;4.40;;
77304;SDS011;66364;52.622;7.746;2023-06-04T03:44:44;4.28;;;3.45;;
77304;SDS011;66364;52.622;7.746;2023-06-04T03:46:45;4.22;;;3.15;;
77304;SDS011;66364;52.622;7.746;2023-06-04T03:48:46;4.70;;;3.17;;
77304;SDS011;66364;52.622;7.746;2023-06-04T03:50:46;4.37;;;3.97;;
77304;SDS011;66364;52.622;7.746;2023-06-04T03:52:48;4.92;;;3.72;;
77304;SDS011;66364;52.622;7.746;2023-06-04T03:54:50;4.53;;;4.10;;
77304;SDS011;66364;52.622;7.746;2023-06-04T03:56:52;5.17;;;3.72;;
77304;SDS011;66364;52.622;7.746;2023-06-04T03:58:53;6.40;;;4.30;;
77304;SDS011;66364;52.622;7.746;2023-06-04T04:00:54;5.42;;;4.53;;
77304;SDS011;66364;52.622;7.746;2023-06-04T04:02:55;5.55;;;3.67;;
77304;SDS011;66364;52.622;7.746;2023-06-04T04:04:56;5.30;;;4.40;;
77304;SDS011;66364;52.622;7.746;2023-06-04T04:06:59;5.15;;;3.77;;
77304;SDS011;66364;52.622;7.746;2023-06-04T04:09:02;4.12;;;3.72;;
77304;SDS011;66364;52.622;7.746;2023-06-04T04:11:04;3.98;;;3.47;;
77304;SDS011;66364;52.622;7.746;2023-06-04T04:13:05;5.23;;;4.00;;
77304;SDS011;66364;52.622;7.746;2023-06-04T04:15:08;4.63;;;4.23;;
77304;SDS011;66364;52.622;7.746;2023-06-04T04:17:09;7.83;;;4.35;;
77304;SDS011;66364;52.622;7.746;2023-06-04T04:19:11;5.42;;;4.47;;
77304;SDS011;66364;52.622;7.746;2023-06-04T04:21:12;4.83;;;4.00;;
77304;SDS011;66364;52.622;7.746;2023-06-04T04:23:13;4.93;;;3.57;;
77304;SDS011;66364;52.622;7.746;2023-06-04T04:25:15;8.60;;;4.40;;
77304;SDS011;66364;52.622;7.746;2023-06-04T04:27:16;7.05;;;5.22;;
77304;SDS011;66364;52.622;7.746;2023-06-04T04:29:17;9.27;;;5.40;;
77304;SDS011;66364;52.622;7.746;2023-06-04T04:31:18;7.17;;;5.80;;
77304;SDS011;66364;52.622;7.746;2023-06-04T04:33:26;5.42;;;4.50;;
77304;SDS011;66364;52.622;7.746;2023-06-04T04:35:27;8.63;;;4.30;;
77304;SDS011;66364;52.622;7.746;2023-06-04T04:37:28;5.78;;;5.05;;
77304;SDS011;66364;52.622;7.746;2023-06-04T04:39:31;9.48;;;5.50;;
77304;SDS011;66364;52.622;7.746;2023-06-04T04:41:32;6.80;;;4.60;;
77304;SDS011;66364;52.622;7.746;2023-06-04T04:43:33;7.22;;;4.70;;
77304;SDS011;66364;52.622;7.746;2023-06-04T04:45:35;5.00;;;4.50;;
77304;SDS011;66364;52.622;7.746;2023-06-04T04:47:37;6.25;;;5.08;;
77304;SDS011;66364;52.622;7.746;2023-06-04T04:49:38;6.53;;;5.92;;
77304;SDS011;66364;52.622;7.746;2023-06-04T04:51:40;5.62;;;4.75;;
77304;SDS011;66364;52.622;7.746;2023-06-04T04:53:41;7.37;;;4.97;;
77304;SDS011;66364;52.622;7.746;2023-06-04T04:55:42;6.13;;;5.20;;
77304;SDS011;66364;52.622;7.746;2023-06-04T04:57:43;10.95;;;5.22;;
77304;SDS011;66364;52.622;7.746;2023-06-04T04:59:44;8.37;;;5.93;;
77304;SDS011;66364;52.622;7.746;2023-06-04T05:01:45;6.20;;;4.63;;
77304;SDS011;66364;52.622;7.746;2023-06-04T05:03:46;6.60;;;5.53;;
77304;SDS011;66364;52.622;7.746;2023-06-04T05:05:47;11.33;;;5.97;;
77304;SDS011;66364;52.622;7.746;2023-06-04T05:07:48;10.03;;;5.25;;
77304;SDS011;66364;52.622;7.746;2023-06-04T05:09:57;5.20;;;4.70;;
77304;SDS011;66364;52.622;7.746;2023-06-04T05:11:58;6.83;;;5.12;;
77304;SDS011;66364;52.622;7.746;2023-06-04T05:14:00;5.30;;;4.50;;
77304;SDS011;66364;52.622;7.746;2023-06-04T05:16:02;5.62;;;5.12;;
77304;SDS011;66364;52.622;7.746;2023-06-04T05:18:04;5.45;;;4.92;;
77304;SDS011;66364;52.622;7.746;2023-06-04T05:20:05;8.47;;;5.00;;
77304;SDS011;66364;52.622;7.746;2023-06-04T05:22:06;7.40;;;6.20;;
77304;SDS011;66364;52.622;7.746;2023-06-04T05:24:07;6.60;;;5.10;;
77304;SDS011;66364;52.622;7.746;2023-06-04T05:26:09;7.20;;;5.35;;
77304;SDS011;66364;52.622;7.746;2023-06-04T05:28:09;5.40;;;4.90;;
77304;SDS011;66364;52.622;7.746;2023-06-04T05:30:11;8.93;;;5.07;;
77304;SDS011;66364;52.622;7.746;2023-06-04T05:32:12;6.87;;;5.15;;
77304;SDS011;66364;52.622;7.746;2023-06-04T05:34:13;6.70;;;5.50;;
77304;SDS011;66364;52.622;7.746;2023-06-04T05:36:14;5.73;;;5.23;;
77304;SDS011;66364;52.622;7.746;2023-06-04T05:38:15;7.10;;;5.10;;
77304;SDS011;66364;52.622;7.746;2023-06-04T05:40:16;10.63;;;5.57;;
77304;SDS011;66364;52.622;7.746;2023-06-04T05:42:17;5.60;;;5.10;;
77304;SDS011;66364;52.622;7.746;2023-06-04T05:44:19;5.42;;;4.45;;
77304;SDS011;66364;52.622;7.746;2023-06-04T05:46:20;6.23;;;5.63;;
77304;SDS011;66364;52.622;7.746;2023-06-04T05:48:22;7.12;;;5.40;;
77304;SDS011;66364;52.622;7.746;2023-06-04T05:50:23;8.27;;;5.67;;
77304;SDS011;66364;52.622;7.746;2023-06-04T05:52:24;7.83;;;6.28;;
77304;SDS011;66364;52.622;7.746;2023-06-04T05:54:26;5.97;;;5.40;;
77304;SDS011;66364;52.622;7.746;2023-06-04T05:56:28;7.83;;;5.42;;
77304;SDS011;66364;52.622;7.746;2023-06-04T05:58:29;5.80;;;5.15;;
77304;SDS011;66364;52.622;7.746;2023-06-04T06:00:29;7.00;;;6.30;;
77304;SDS011;66364;52.622;7.746;2023-06-04T06:02:30;6.93;;;5.93;;
77304;SDS011;66364;52.622;7.746;2023-06-04T06:04:31;8.23;;;6.17;;
77304;SDS011;66364;52.622;7.746;2023-06-04T06:06:32;5.70;;;5.03;;
77304;SDS011;66364;52.622;7.746;2023-06-04T06:08:33;6.70;;;5.23;;
77304;SDS011;66364;52.622;7.746;2023-06-04T06:10:34;8.87;;;5.53;;
77304;SDS011;66364;52.622;7.746;2023-06-04T06:12:35;8.40;;;5.40;;
77304;SDS011;66364;52.622;7.746;2023-06-04T06:14:36;7.23;;;5.00;;
77304;SDS011;66364;52.622;7.746;2023-06-04T06:16:37;8.98;;;5.70;;
77304;SDS011;66364;52.622;7.746;2023-06-04T06:18:38;6.30;;;5.37;;
77304;SDS011;66364;52.622;7.746;2023-06-04T06:20:40;7.25;;;5.37;;
77304;SDS011;66364;52.622;7.746;2023-06-04T06:22:41;6.92;;;5.78;;
77304;SDS011;66364;52.622;7.746;2023-06-04T06:24:42;7.90;;;4.70;;
77304;SDS011;66364;52.622;7.746;2023-06-04T06:26:43;6.70;;;4.47;;
77304;SDS011;66364;52.622;7.746;2023-06-04T06:28:44;5.50;;;4.97;;
77304;SDS011;66364;52.622;7.746;2023-06-04T06:30:45;7.80;;;5.80;;
77304;SDS011;66364;52.622;7.746;2023-06-04T06:32:46;4.87;;;4.43;;
77304;SDS011;66364;52.622;7.746;2023-06-04T06:34:47;10.28;;;4.65;;
77304;SDS011;66364;52.622;7.746;2023-06-04T06:36:48;9.05;;;5.05;;
77304;SDS011;66364;52.622;7.746;2023-06-04T06:38:49;6.20;;;4.75;;
77304;SDS011;66364;52.622;7.746;2023-06-04T06:40:50;6.80;;;5.10;;
77304;SDS011;66364;52.622;7.746;2023-06-04T06:42:52;8.55;;;4.80;;
77304;SDS011;66364;52.622;7.746;2023-06-04T06:44:53;6.37;;;4.57;;
77304;SDS011;66364;52.622;7.746;2023-06-04T06:46:53;7.57;;;4.73;;
77304;SDS011;66364;52.622;7.746;2023-06-04T06:48:54;9.47;;;4.47;;
77304;SDS011;66364;52.622;7.746;2023-06-04T06:50:55;7.57;;;4.90;;
77304;SDS011;66364;52.622;7.746;2023-06-04T06:52:56;5.40;;;4.67;;
77304;SDS011;66364;52.622;7.746;2023-06-04T06:54:57;5.93;;;4.57;;
77304;SDS011;66364;52.622;7.746;2023-06-04T06:56:58;5.35;;;4.85;;
77304;SDS011;66364;52.622;7.746;2023-06-04T06:59:01;4.92;;;4.20;;
77304;SDS011;66364;52.622;7.746;2023-06-04T07:01:01;4.07;;;3.77;;
77304;SDS011;66364;52.622;7.746;2023-06-04T07:03:03;5.30;;;4.33;;
77304;SDS011;66364;52.622;7.746;2023-06-04T07:05:04;4.60;;;3.83;;
77304;SDS011;66364;52.622;7.746;2023-06-04T07:07:05;3.85;;;3.08;;
77304;SDS011;66364;52.622;7.746;2023-06-04T07:09:06;4.83;;;3.55;;
77304;SDS011;66364;52.622;7.746;2023-06-04T07:11:08;8.33;;;4.53;;
77304;SDS011;66364;52.622;7.746;2023-06-04T07:13:09;9.60;;;4.30;;
77304;SDS011;66364;52.622;7.746;2023-06-04T07:15:10;4.17;;;3.15;;
77304;SDS011;66364;52.622;7.746;2023-06-04T07:17:11;4.53;;;4.13;;
77304;SDS011;66364;52.622;7.746;2023-06-04T07:19:12;6.92;;;3.30;;
77304;SDS011;66364;52.622;7.746;2023-06-04T07:21:13;5.12;;;3.40;;
77304;SDS011;66364;52.622;7.746;2023-06-04T07:23:14;5.00;;;3.50;;
77304;SDS011;66364;52.622;7.746;2023-06-04T07:25:14;4.60;;;3.40;;
77304;SDS011;66364;52.622;7.746;2023-06-04T07:27:15;6.93;;;3.30;;
77304;SDS011;66364;52.622;7.746;2023-06-04T07:29:16;7.23;;;3.53;;
77304;SDS011;66364;52.622;7.746;2023-06-04T07:31:17;6.92;;;3.55;;
77304;SDS011;66364;52.622;7.746;2023-06-04T07:33:21;5.08;;;3.45;;
77304;SDS011;66364;52.622;7.746;2023-06-04T07:35:23;6.12;;;3.92;;
77304;SDS011;66364;52.622;7.746;2023-06-04T07:37:24;5.10;;;4.15;;
77304;SDS011;66364;52.622;7.746;2023-06-04T07:39:25;4.80;;;4.03;;
77304;SDS011;66364;52.622;7.746;2023-06-04T07:41:26;4.60;;;3.37;;
77304;SDS011;66364;52.622;7.746;2023-06-04T07:43:30;3.85;;;3.35;;
77304;SDS011;66364;52.622;7.746;2023-06-04T07:45:33;3.77;;;3.47;;
77304;SDS011;66364;52.622;7.746;2023-06-04T07:47:35;3.83;;;3.43;;
77304;SDS011;66364;52.622;7.746;2023-06-04T07:49:36;5.97;;;4.28;;
77304;SDS011;66364;52.622;7.746;2023-06-04T07:51:38;3.87;;;3.47;;
77304;SDS011;66364;52.622;7.746;2023-06-04T07:53:39;4.00;;;3.13;;
77304;SDS011;66364;52.622;7.746;2023-06-04T07:55:41;3.40;;;3.10;;
77304;SDS011;66364;52.622;7.746;2023-06-04T07:57:42;5.50;;;4.07;;
77304;SDS011;66364;52.622;7.746;2023-06-04T07:59:43;3.30;;;3.00;;
77304;SDS011;66364;52.622;7.746;2023-06-04T08:01:44;3.37;;;3.08;;
77304;SDS011;66364;52.622;7.746;2023-06-04T08:03:45;4.77;;;3.60;;
77304;SDS011;66364;52.622;7.746;2023-06-04T08:05:46;6.03;;;3.27;;
77304;SDS011;66364;52.622;7.746;2023-06-04T08:07:47;5.53;;;3.90;;
77304;SDS011;66364;52.622;7.746;2023-06-04T08:09:54;6.10;;;3.55;;
77304;SDS011;66364;52.622;7.746;2023-06-04T08:11:55;3.80;;;3.40;;
77304;SDS011;66364;52.622;7.746;2023-06-04T08:13:55;6.40;;;3.50;;
77304;SDS011;66364;52.622;7.746;2023-06-04T08:15:56;4.67;;;2.60;;
77304;SDS011;66364;52.622;7.746;2023-06-04T08:17:58;3.52;;;3.22;;
77304;SDS011;66364;52.622;7.746;2023-06-04T08:19:59;3.62;;;3.15;;
77304;SDS011;66364;52.622;7.746;2023-06-04T08:22:01;5.00;;;3.50;;
77304;SDS011;66364;52.622;7.746;2023-06-04T08:24:04;3.65;;;3.10;;
77304;SDS011;66364;52.622;7.746;2023-06-04T08:26:05;3.47;;;2.80;;
77304;SDS011;66364;52.622;7.746;2023-06-04T08:28:07;5.12;;;2.50;;
77304;SDS011;66364;52.622;7.746;2023-06-04T08:30:08;3.90;;;2.23;;
77304;SDS011;66364;52.622;7.746;2023-06-04T08:32:09;2.60;;;2.40;;
77304;SDS011;66364;52.622;7.746;2023-06-04T08:34:10;3.03;;;2.73;;
77304;SDS011;66364;52.622;7.746;2023-06-04T08:36:11;3.85;;;3.08;;
77304;SDS011;66364;52.622;7.746;2023-06-04T08:38:12;3.00;;;2.80;;
77304;SDS011;66364;52.622;7.746;2023-06-04T08:40:13;3.27;;;1.98;;
77304;SDS011;66364;52.622;7.746;2023-06-04T08:42:27;2.60;;;2.23;;
77304;SDS011;66364;52.622;7.746;2023-06-04T08:44:27;4.20;;;2.60;;
77304;SDS011;66364;52.622;7.746;2023-06-04T08:46:29;3.15;;;2.85;;
77304;SDS011;66364;52.622;7.746;2023-06-04T08:48:37;2.50;;;2.20;;
77304;SDS011;66364;52.622;7.746;2023-06-04T08:50:39;4.45;;;2.20;;
77304;SDS011;66364;52.622;7.746;2023-06-04T08:52:43;4.47;;;3.17;;
77304;SDS011;66364;52.622;7.746;2023-06-04T08:54:44;2.57;;;2.37;;
77304;SDS011;66364;52.622;7.746;2023-06-04T08:56:47;6.37;;;2.37;;
77304;SDS011;66364;52.622;7.746;2023-06-04T08:58:50;3.12;;;2.42;;
77304;SDS011;66364;52.622;7.746;2023-06-04T09:00:52;2.95;;;2.17;;
77304;SDS011;66364;52.622;7.746;2023-06-04T09:02:53;6.00;;;2.95;;
77304;SDS011;66364;52.622;7.746;2023-06-04T09:04:55;2.95;;;2.40;;
77304;SDS011;66364;52.622;7.746;2023-06-04T09:06:59;2.87;;;2.42;;
77304;SDS011;66364;52.622;7.746;2023-06-04T09:09:04;4.97;;;3.25;;
77304;SDS011;66364;52.622;7.746;2023-06-04T09:11:08;3.77;;;2.52;;
77304;SDS011;66364;52.622;7.746;2023-06-04T09:13:13;2.65;;;2.45;;
77304;SDS011;66364;52.622;7.746;2023-06-04T09:15:15;3.33;;;2.50;;
77304;SDS011;66364;52.622;7.746;2023-06-04T09:17:23;7.53;;;2.35;;
77304;SDS011;66364;52.622;7.746;2023-06-04T09:19:25;6.60;;;2.40;;
77304;SDS011;66364;52.622;7.746;2023-06-04T09:21:25;2.70;;;2.30;;
77304;SDS011;66364;52.622;7.746;2023-06-04T09:23:26;3.13;;;2.40;;
77304;SDS011;66364;52.622;7.746;2023-06-04T09:25:28;3.50;;;2.00;;
77304;SDS011;66364;52.622;7.746;2023-06-04T09:29:55;4.90;;;2.55;;
77304;SDS011;66364;52.622;7.746;2023-06-04T09:31:58;4.87;;;2.60;;
77304;SDS011;66364;52.622;7.746;2023-06-04T09:34:00;2.67;;;2.45;;
77304;SDS011;66364;52.622;7.746;2023-06-04T09:36:01;7.60;;;2.42;;
77304;SDS011;66364;52.622;7.746;2023-06-04T09:38:04;6.22;;;2.15;;
77304;SDS011;66364;52.622;7.746;2023-06-04T09:40:06;1.98;;;1.57;;
77304;SDS011;66364;52.622;7.746;2023-06-04T09:42:07;3.05;;;1.95;;
77304;SDS011;66364;52.622;7.746;2023-06-04T09:44:10;2.00;;;1.80;;
77304;SDS011;66364;52.622;7.746;2023-06-04T09:46:14;1.55;;;1.45;;
77304;SDS011;66364;52.622;7.746;2023-06-04T09:48:21;2.35;;;1.82;;
77304;SDS011;66364;52.622;7.746;2023-06-04T09:50:25;3.35;;;1.40;;
77304;SDS011;66364;52.622;7.746;2023-06-04T09:52:33;1.80;;;1.55;;
77304;SDS011;66364;52.622;7.746;2023-06-04T09:54:38;2.65;;;1.50;;
77304;SDS011;66364;52.622;7.746;2023-06-04T09:56:41;1.15;;;1.00;;
77304;SDS011;66364;52.622;7.746;2023-06-04T09:58:43;3.15;;;1.60;;
77304;SDS011;66364;52.622;7.746;2023-06-04T10:00:46;3.02;;;1.40;;
77304;SDS011;66364;52.622;7.746;2023-06-04T10:02:47;2.62;;;1.87;;
77304;SDS011;66364;52.622;7.746;2023-06-04T10:04:49;2.40;;;1.50;;
77304;SDS011;66364;52.622;7.746;2023-06-04T10:06:53;1.82;;;1.20;;
77304;SDS011;66364;52.622;7.746;2023-06-04T10:08:55;1.93;;;1.50;;
77304;SDS011;66364;52.622;7.746;2023-06-04T10:10:59;2.55;;;1.55;;
77304;SDS011;66364;52.622;7.746;2023-06-04T10:15:12;2.70;;;1.55;;
77304;SDS011;66364;52.622;7.746;2023-06-04T10:17:14;2.40;;;1.60;;
77304;SDS011;66364;52.622;7.746;2023-06-04T10:19:18;4.55;;;1.57;;
77304;SDS011;66364;52.622;7.746;2023-06-04T10:21:19;1.80;;;1.67;;
77304;SDS011;66364;52.622;7.746;2023-06-04T10:23:21;1.98;;;1.30;;
77304;SDS011;66364;52.622;7.746;2023-06-04T10:25:22;2.87;;;1.20;;
77304;SDS011;66364;52.622;7.746;2023-06-04T10:27:25;2.42;;;1.30;;
77304;SDS011;66364;52.622;7.746;2023-06-04T10:29:26;3.63;;;1.40;;
77304;SDS011;66364;52.622;7.746;2023-06-04T10:31:31;2.05;;;1.47;;
77304;SDS011;66364;52.622;7.746;2023-06-04T10:33:33;2.70;;;1.25;;
77304;SDS011;66364;52.622;7.746;2023-06-04T10:35:35;1.70;;;1.50;;
77304;SDS011;66364;52.622;7.746;2023-06-04T10:37:37;1.60;;;1.32;;
77304;SDS011;66364;52.622;7.746;2023-06-04T10:39:38;1.52;;;1.25;;
77304;SDS011;66364;52.622;7.746;2023-06-04T10:41:40;1.77;;;1.32;;
77304;SDS011;66364;52.622;7.746;2023-06-04T10:43:41;1.75;;;1.40;;
77304;SDS011;66364;52.622;7.746;2023-06-04T10:45:42;4.00;;;1.20;;
77304;SDS011;66364;52.622;7.746;2023-06-04T10:47:45;2.10;;;1.60;;
77304;SDS011;66364;52.622;7.746;2023-06-04T10:49:46;2.27;;;1.50;;
77304;SDS011;66364;52.622;7.746;2023-06-04T10:51:47;2.98;;;1.95;;
77304;SDS011;66364;52.622;7.746;2023-06-04T10:53:50;2.37;;;1.80;;
77304;SDS011;66364;52.622;7.746;2023-06-04T10:55:51;3.02;;;1.60;;
77304;SDS011;66364;52.622;7.746;2023-06-04T10:57:55;3.50;;;1.33;;
77304;SDS011;66364;52.622;7.746;2023-06-04T11:00:14;3.35;;;1.40;;
77304;SDS011;66364;52.622;7.746;2023-06-04T11:02:16;1.72;;;1.30;;
77304;SDS011;66364;52.622;7.746;2023-06-04T11:04:27;1.75;;;1.30;;
77304;SDS011;66364;52.622;7.746;2023-06-04T11:06:26;3.40;;;1.82;;
77304;SDS011;66364;52.622;7.746;2023-06-04T11:08:28;1.87;;;1.45;;
77304;SDS011;66364;52.622;7.746;2023-06-04T11:10:31;4.40;;;1.90;;
77304;SDS011;66364;52.622;7.746;2023-06-04T11:12:46;3.47;;;1.67;;
77304;SDS011;66364;52.622;7.746;2023-06-04T11:14:59;7.30;;;1.50;;
77304;SDS011;66364;52.622;7.746;2023-06-04T11:17:11;2.30;;;1.55;;
77304;SDS011;66364;52.622;7.746;2023-06-04T11:19:12;2.37;;;1.12;;
77304;SDS011;66364;52.622;7.746;2023-06-04T11:21:13;2.93;;;2.63;;
77304;SDS011;66364;52.622;7.746;2023-06-04T11:23:14;3.30;;;2.07;;
77304;SDS011;66364;52.622;7.746;2023-06-04T11:25:16;1.40;;;1.30;;
77304;SDS011;66364;52.622;7.746;2023-06-04T11:27:18;2.25;;;1.40;;
77304;SDS011;66364;52.622;7.746;2023-06-04T11:29:20;2.77;;;1.40;;
77304;SDS011;66364;52.622;7.746;2023-06-04T11:31:28;4.47;;;1.32;;
77304;SDS011;66364;52.622;7.746;2023-06-04T11:33:29;3.45;;;1.75;;
77304;SDS011;66364;52.622;7.746;2023-06-04T11:35:31;1.95;;;1.40;;
77304;SDS011;66364;52.622;7.746;2023-06-04T11:37:34;2.35;;;1.50;;
77304;SDS011;66364;52.622;7.746;2023-06-04T11:39:35;1.30;;;1.20;;
77304;SDS011;66364;52.622;7.746;2023-06-04T11:41:37;4.65;;;1.32;;
77304;SDS011;66364;52.622;7.746;2023-06-04T11:43:39;1.30;;;1.20;;
77304;SDS011;66364;52.622;7.746;2023-06-04T11:45:40;2.05;;;1.25;;
77304;SDS011;66364;52.622;7.746;2023-06-04T11:47:44;2.10;;;1.32;;
77304;SDS011;66364;52.622;7.746;2023-06-04T11:49:57;1.85;;;1.22;;
77304;SDS011;66364;52.622;7.746;2023-06-04T11:51:55;2.77;;;2.55;;
77304;SDS011;66364;52.622;7.746;2023-06-04T11:53:57;2.30;;;1.50;;
77304;SDS011;66364;52.622;7.746;2023-06-04T11:55:58;2.65;;;1.60;;
77304;SDS011;66364;52.622;7.746;2023-06-04T11:58:00;3.17;;;1.60;;
77304;SDS011;66364;52.622;7.746;2023-06-04T12:00:01;4.22;;;1.67;;
77304;SDS011;66364;52.622;7.746;2023-06-04T12:02:02;5.55;;;1.90;;
77304;SDS011;66364;52.622;7.746;2023-06-04T12:04:11;2.33;;;1.27;;
77304;SDS011;66364;52.622;7.746;2023-06-04T12:06:14;2.35;;;1.60;;
77304;SDS011;66364;52.622;7.746;2023-06-04T12:08:16;1.50;;;1.12;;
77304;SDS011;66364;52.622;7.746;2023-06-04T12:10:18;1.63;;;1.27;;
77304;SDS011;66364;52.622;7.746;2023-06-04T12:12:23;3.33;;;1.47;;
77304;SDS011;66364;52.622;7.746;2023-06-04T12:14:23;3.55;;;1.90;;
77304;SDS011;66364;52.622;7.746;2023-06-04T12:16:24;1.80;;;1.27;;
77304;SDS011;66364;52.622;7.746;2023-06-04T12:18:26;1.70;;;1.45;;
77304;SDS011;66364;52.622;7.746;2023-06-04T12:20:32;1.90;;;1.20;;
77304;SDS011;66364;52.622;7.746;2023-06-04T12:22:43;2.30;;;1.27;;
77304;SDS011;66364;52.622;7.746;2023-06-04T12:24:46;4.75;;;1.62;;